sensor_id;sensor_type;location;lat;lon;timestamp;P1;durP1;ratioP1;P2;durP2;ratioP2
78057;SDS011;67265;52.514;13.292;2024-03-02T00:00:36;44.63;;;19.30;;
78057;SDS011;67265;52.514;13.292;2024-03-02T00:03:02;58.13;;;25.50;;
78057;SDS011;67265;52.514;13.292;2024-03-02T00:05:29;44.47;;;20.50;;
78057;SDS011;67265;52.514;13.292;2024-03-02T00:07:59;47.03;;;20.02;;
78057;SDS011;67265;52.514;13.292;2024-03-02T00:10:27;41.70;;;18.00;;
78057;SDS011;67265;52.514;13.292;2024-03-02T00:13:03;45.70;;;19.10;;
78057;SDS011;67265;52.514;13.292;2024-03-02T00:15:41;46.33;;;18.70;;
78057;SDS011;67265;52.514;13.292;2024-03-02T00:18:11;55.47;;;23.85;;
78057;SDS011;67265;52.514;13.292;2024-03-02T00:20:43;41.45;;;17.52;;
78057;SDS011;67265;52.514;13.292;2024-03-02T00:23:10;53.72;;;23.77;;
78057;SDS011;67265;52.514;13.292;2024-03-02T00:28:22;72.90;;;26.80;;
78057;SDS011;67265;52.514;13.292;2024-03-02T00:33:32;60.13;;;22.75;;
78057;SDS011;67265;52.514;13.292;2024-03-02T00:36:03;45.83;;;19.08;;
78057;SDS011;67265;52.514;13.292;2024-03-02T00:38:30;41.90;;;18.77;;
78057;SDS011;67265;52.514;13.292;2024-03-02T00:40:58;45.17;;;18.60;;
78057;SDS011;67265;52.514;13.292;2024-03-02T00:46:17;39.10;;;16.98;;
78057;SDS011;67265;52.514;13.292;2024-03-02T00:48:58;44.85;;;19.23;;
78057;SDS011;67265;52.514;13.292;2024-03-02T00:51:27;38.20;;;17.13;;
78057;SDS011;67265;52.514;13.292;2024-03-02T00:53:55;42.80;;;18.13;;
78057;SDS011;67265;52.514;13.292;2024-03-02T00:56:24;43.83;;;19.30;;
78057;SDS011;67265;52.514;13.292;2024-03-02T00:58:52;56.72;;;24.77;;
78057;SDS011;67265;52.514;13.292;2024-03-02T01:01:19;47.25;;;19.70;;
78057;SDS011;67265;52.514;13.292;2024-03-02T01:03:46;47.13;;;19.90;;
78057;SDS011;67265;52.514;13.292;2024-03-02T01:06:13;74.70;;;34.92;;
78057;SDS011;67265;52.514;13.292;2024-03-02T01:08:40;58.38;;;25.73;;
78057;SDS011;67265;52.514;13.292;2024-03-02T01:11:07;49.00;;;21.92;;
78057;SDS011;67265;52.514;13.292;2024-03-02T01:13:33;41.60;;;18.08;;
78057;SDS011;67265;52.514;13.292;2024-03-02T01:16:00;42.95;;;18.98;;
78057;SDS011;67265;52.514;13.292;2024-03-02T01:18:27;42.72;;;19.38;;
78057;SDS011;67265;52.514;13.292;2024-03-02T01:20:54;44.90;;;19.45;;
78057;SDS011;67265;52.514;13.292;2024-03-02T01:23:22;38.40;;;18.95;;
78057;SDS011;67265;52.514;13.292;2024-03-02T01:25:50;46.35;;;18.65;;
78057;SDS011;67265;52.514;13.292;2024-03-02T01:28:17;42.03;;;19.27;;
78057;SDS011;67265;52.514;13.292;2024-03-02T01:30:44;47.00;;;20.05;;
78057;SDS011;67265;52.514;13.292;2024-03-02T01:33:11;46.42;;;19.02;;
78057;SDS011;67265;52.514;13.292;2024-03-02T01:35:38;45.33;;;20.60;;
78057;SDS011;67265;52.514;13.292;2024-03-02T01:38:04;46.47;;;18.77;;
78057;SDS011;67265;52.514;13.292;2024-03-02T01:40:35;47.33;;;20.48;;
78057;SDS011;67265;52.514;13.292;2024-03-02T01:43:02;48.83;;;20.73;;
78057;SDS011;67265;52.514;13.292;2024-03-02T01:45:31;44.97;;;19.40;;
78057;SDS011;67265;52.514;13.292;2024-03-02T01:47:59;46.03;;;20.67;;
78057;SDS011;67265;52.514;13.292;2024-03-02T01:50:30;48.13;;;20.42;;
78057;SDS011;67265;52.514;13.292;2024-03-02T01:52:58;48.53;;;21.77;;
78057;SDS011;67265;52.514;13.292;2024-03-02T01:55:26;45.78;;;21.15;;
78057;SDS011;67265;52.514;13.292;2024-03-02T01:57:55;48.40;;;20.88;;
78057;SDS011;67265;52.514;13.292;2024-03-02T02:00:22;52.67;;;20.70;;
78057;SDS011;67265;52.514;13.292;2024-03-02T02:02:51;47.92;;;20.95;;
78057;SDS011;67265;52.514;13.292;2024-03-02T02:05:18;51.42;;;20.95;;
78057;SDS011;67265;52.514;13.292;2024-03-02T02:07:45;51.10;;;20.83;;
78057;SDS011;67265;52.514;13.292;2024-03-02T02:10:13;50.88;;;20.98;;
78057;SDS011;67265;52.514;13.292;2024-03-02T02:12:39;50.05;;;21.35;;
78057;SDS011;67265;52.514;13.292;2024-03-02T02:15:22;50.72;;;20.73;;
78057;SDS011;67265;52.514;13.292;2024-03-02T02:18:01;46.92;;;21.02;;
78057;SDS011;67265;52.514;13.292;2024-03-02T02:20:28;48.50;;;20.48;;
78057;SDS011;67265;52.514;13.292;2024-03-02T02:23:01;52.78;;;21.48;;
78057;SDS011;67265;52.514;13.292;2024-03-02T02:25:29;49.08;;;21.92;;
78057;SDS011;67265;52.514;13.292;2024-03-02T02:27:56;54.33;;;22.88;;
78057;SDS011;67265;52.514;13.292;2024-03-02T02:30:25;55.15;;;22.48;;
78057;SDS011;67265;52.514;13.292;2024-03-02T02:32:53;50.58;;;22.67;;
78057;SDS011;67265;52.514;13.292;2024-03-02T02:35:21;54.35;;;24.23;;
78057;SDS011;67265;52.514;13.292;2024-03-02T02:37:48;54.05;;;24.33;;
78057;SDS011;67265;52.514;13.292;2024-03-02T02:40:15;51.28;;;24.27;;
78057;SDS011;67265;52.514;13.292;2024-03-02T02:42:42;53.08;;;23.45;;
78057;SDS011;67265;52.514;13.292;2024-03-02T02:45:10;58.03;;;25.75;;
78057;SDS011;67265;52.514;13.292;2024-03-02T02:47:41;59.38;;;24.92;;
78057;SDS011;67265;52.514;13.292;2024-03-02T02:50:08;57.47;;;24.58;;
78057;SDS011;67265;52.514;13.292;2024-03-02T02:52:38;54.63;;;24.33;;
78057;SDS011;67265;52.514;13.292;2024-03-02T02:55:07;55.42;;;23.10;;
78057;SDS011;67265;52.514;13.292;2024-03-02T02:57:38;53.00;;;22.45;;
78057;SDS011;67265;52.514;13.292;2024-03-02T03:00:10;53.92;;;23.27;;
78057;SDS011;67265;52.514;13.292;2024-03-02T03:02:42;50.22;;;22.80;;
78057;SDS011;67265;52.514;13.292;2024-03-02T03:05:10;53.38;;;23.90;;
78057;SDS011;67265;52.514;13.292;2024-03-02T03:07:37;57.58;;;25.40;;
78057;SDS011;67265;52.514;13.292;2024-03-02T03:10:07;54.38;;;23.60;;
78057;SDS011;67265;52.514;13.292;2024-03-02T03:12:34;61.47;;;23.80;;
78057;SDS011;67265;52.514;13.292;2024-03-02T03:15:01;56.25;;;23.80;;
78057;SDS011;67265;52.514;13.292;2024-03-02T03:17:28;51.90;;;22.08;;
78057;SDS011;67265;52.514;13.292;2024-03-02T03:19:54;54.35;;;22.10;;
78057;SDS011;67265;52.514;13.292;2024-03-02T03:22:21;57.22;;;23.45;;
78057;SDS011;67265;52.514;13.292;2024-03-02T03:24:48;54.63;;;23.30;;
78057;SDS011;67265;52.514;13.292;2024-03-02T03:27:14;53.42;;;23.48;;
78057;SDS011;67265;52.514;13.292;2024-03-02T03:29:41;55.55;;;23.80;;
78057;SDS011;67265;52.514;13.292;2024-03-02T03:32:08;53.75;;;23.67;;
78057;SDS011;67265;52.514;13.292;2024-03-02T03:34:37;51.20;;;22.60;;
78057;SDS011;67265;52.514;13.292;2024-03-02T03:37:04;54.78;;;23.70;;
78057;SDS011;67265;52.514;13.292;2024-03-02T03:39:30;51.40;;;21.92;;
78057;SDS011;67265;52.514;13.292;2024-03-02T03:41:57;48.53;;;21.30;;
78057;SDS011;67265;52.514;13.292;2024-03-02T03:44:23;50.88;;;22.00;;
78057;SDS011;67265;52.514;13.292;2024-03-02T03:46:50;53.42;;;22.00;;
78057;SDS011;67265;52.514;13.292;2024-03-02T03:49:20;52.47;;;21.70;;
78057;SDS011;67265;52.514;13.292;2024-03-02T03:51:47;56.97;;;23.02;;
78057;SDS011;67265;52.514;13.292;2024-03-02T03:54:13;53.45;;;22.48;;
78057;SDS011;67265;52.514;13.292;2024-03-02T03:56:40;51.25;;;21.08;;
78057;SDS011;67265;52.514;13.292;2024-03-02T03:59:07;49.17;;;21.90;;
78057;SDS011;67265;52.514;13.292;2024-03-02T04:01:33;53.10;;;22.95;;
78057;SDS011;67265;52.514;13.292;2024-03-02T04:04:03;50.35;;;21.92;;
78057;SDS011;67265;52.514;13.292;2024-03-02T04:06:38;51.83;;;22.55;;
78057;SDS011;67265;52.514;13.292;2024-03-02T04:09:04;48.80;;;22.15;;
78057;SDS011;67265;52.514;13.292;2024-03-02T04:11:31;44.25;;;19.77;;
78057;SDS011;67265;52.514;13.292;2024-03-02T04:13:58;49.63;;;22.30;;
78057;SDS011;67265;52.514;13.292;2024-03-02T04:16:24;49.45;;;22.25;;
78057;SDS011;67265;52.514;13.292;2024-03-02T04:18:51;51.35;;;21.90;;
78057;SDS011;67265;52.514;13.292;2024-03-02T04:21:17;50.88;;;21.95;;
78057;SDS011;67265;52.514;13.292;2024-03-02T04:23:44;47.97;;;20.85;;
78057;SDS011;67265;52.514;13.292;2024-03-02T04:26:10;47.05;;;21.33;;
78057;SDS011;67265;52.514;13.292;2024-03-02T04:28:37;47.28;;;21.48;;
78057;SDS011;67265;52.514;13.292;2024-03-02T04:31:04;50.83;;;21.55;;
78057;SDS011;67265;52.514;13.292;2024-03-02T04:33:30;45.45;;;19.55;;
78057;SDS011;67265;52.514;13.292;2024-03-02T04:35:57;51.00;;;21.38;;
78057;SDS011;67265;52.514;13.292;2024-03-02T04:38:24;48.35;;;20.45;;
78057;SDS011;67265;52.514;13.292;2024-03-02T04:40:51;49.58;;;22.98;;
78057;SDS011;67265;52.514;13.292;2024-03-02T04:43:19;49.75;;;20.88;;
78057;SDS011;67265;52.514;13.292;2024-03-02T04:45:46;46.75;;;20.25;;
78057;SDS011;67265;52.514;13.292;2024-03-02T04:48:12;48.08;;;21.02;;
78057;SDS011;67265;52.514;13.292;2024-03-02T04:50:40;51.83;;;22.02;;
78057;SDS011;67265;52.514;13.292;2024-03-02T04:53:06;49.55;;;21.00;;
78057;SDS011;67265;52.514;13.292;2024-03-02T04:55:33;46.83;;;20.98;;
78057;SDS011;67265;52.514;13.292;2024-03-02T04:58:05;48.65;;;20.85;;
78057;SDS011;67265;52.514;13.292;2024-03-02T05:00:33;45.08;;;19.90;;
78057;SDS011;67265;52.514;13.292;2024-03-02T05:03:00;43.30;;;19.98;;
78057;SDS011;67265;52.514;13.292;2024-03-02T05:05:27;48.35;;;22.10;;
78057;SDS011;67265;52.514;13.292;2024-03-02T05:07:53;49.47;;;22.83;;
78057;SDS011;67265;52.514;13.292;2024-03-02T05:10:20;46.33;;;21.15;;
78057;SDS011;67265;52.514;13.292;2024-03-02T05:12:47;48.50;;;20.60;;
78057;SDS011;67265;52.514;13.292;2024-03-02T05:15:23;50.03;;;22.25;;
78057;SDS011;67265;52.514;13.292;2024-03-02T05:17:50;46.38;;;21.90;;
78057;SDS011;67265;52.514;13.292;2024-03-02T05:20:17;51.70;;;22.25;;
78057;SDS011;67265;52.514;13.292;2024-03-02T05:22:44;46.50;;;22.60;;
78057;SDS011;67265;52.514;13.292;2024-03-02T05:25:13;50.95;;;21.52;;
78057;SDS011;67265;52.514;13.292;2024-03-02T05:27:42;52.80;;;22.55;;
78057;SDS011;67265;52.514;13.292;2024-03-02T05:30:09;49.08;;;20.80;;
78057;SDS011;67265;52.514;13.292;2024-03-02T05:32:38;48.83;;;20.80;;
78057;SDS011;67265;52.514;13.292;2024-03-02T05:35:04;47.50;;;20.88;;
78057;SDS011;67265;52.514;13.292;2024-03-02T05:37:31;56.03;;;22.88;;
78057;SDS011;67265;52.514;13.292;2024-03-02T05:39:58;62.83;;;24.00;;
78057;SDS011;67265;52.514;13.292;2024-03-02T05:42:26;56.10;;;24.05;;
78057;SDS011;67265;52.514;13.292;2024-03-02T05:44:53;57.10;;;24.00;;
78057;SDS011;67265;52.514;13.292;2024-03-02T05:47:20;52.72;;;22.25;;
78057;SDS011;67265;52.514;13.292;2024-03-02T05:49:49;51.60;;;21.40;;
78057;SDS011;67265;52.514;13.292;2024-03-02T05:52:16;52.50;;;22.10;;
78057;SDS011;67265;52.514;13.292;2024-03-02T05:54:42;53.33;;;23.05;;
78057;SDS011;67265;52.514;13.292;2024-03-02T05:57:09;57.28;;;22.67;;
78057;SDS011;67265;52.514;13.292;2024-03-02T05:59:54;56.28;;;23.80;;
78057;SDS011;67265;52.514;13.292;2024-03-02T06:02:21;55.58;;;22.15;;
78057;SDS011;67265;52.514;13.292;2024-03-02T06:04:48;58.25;;;22.85;;
78057;SDS011;67265;52.514;13.292;2024-03-02T06:07:15;55.20;;;21.27;;
78057;SDS011;67265;52.514;13.292;2024-03-02T06:09:42;57.08;;;22.25;;
78057;SDS011;67265;52.514;13.292;2024-03-02T06:12:10;56.28;;;22.98;;
78057;SDS011;67265;52.514;13.292;2024-03-02T06:14:37;53.70;;;22.15;;
78057;SDS011;67265;52.514;13.292;2024-03-02T06:17:03;58.20;;;22.35;;
78057;SDS011;67265;52.514;13.292;2024-03-02T06:19:30;60.78;;;23.85;;
78057;SDS011;67265;52.514;13.292;2024-03-02T06:21:56;51.30;;;21.58;;
78057;SDS011;67265;52.514;13.292;2024-03-02T06:24:25;59.00;;;23.70;;
78057;SDS011;67265;52.514;13.292;2024-03-02T06:26:52;58.53;;;22.52;;
78057;SDS011;67265;52.514;13.292;2024-03-02T06:29:19;52.10;;;21.33;;
78057;SDS011;67265;52.514;13.292;2024-03-02T06:31:48;58.50;;;23.50;;
78057;SDS011;67265;52.514;13.292;2024-03-02T06:36:45;54.72;;;20.60;;
78057;SDS011;67265;52.514;13.292;2024-03-02T06:39:12;57.67;;;22.25;;
78057;SDS011;67265;52.514;13.292;2024-03-02T06:41:38;50.95;;;21.98;;
78057;SDS011;67265;52.514;13.292;2024-03-02T06:44:05;45.35;;;19.67;;
78057;SDS011;67265;52.514;13.292;2024-03-02T06:46:32;52.83;;;21.23;;
78057;SDS011;67265;52.514;13.292;2024-03-02T06:48:59;51.95;;;20.98;;
78057;SDS011;67265;52.514;13.292;2024-03-02T06:51:26;53.83;;;21.45;;
78057;SDS011;67265;52.514;13.292;2024-03-02T06:53:52;52.85;;;22.15;;
78057;SDS011;67265;52.514;13.292;2024-03-02T06:56:19;52.28;;;20.73;;
78057;SDS011;67265;52.514;13.292;2024-03-02T06:58:46;58.22;;;22.38;;
78057;SDS011;67265;52.514;13.292;2024-03-02T07:01:13;46.47;;;19.65;;
78057;SDS011;67265;52.514;13.292;2024-03-02T07:03:39;47.92;;;22.38;;
78057;SDS011;67265;52.514;13.292;2024-03-02T07:06:06;48.53;;;20.63;;
78057;SDS011;67265;52.514;13.292;2024-03-02T07:08:32;44.67;;;20.10;;
78057;SDS011;67265;52.514;13.292;2024-03-02T07:10:59;54.28;;;22.10;;
78057;SDS011;67265;52.514;13.292;2024-03-02T07:13:26;50.10;;;21.52;;
78057;SDS011;67265;52.514;13.292;2024-03-02T07:15:53;47.42;;;19.52;;
78057;SDS011;67265;52.514;13.292;2024-03-02T07:18:29;50.63;;;20.45;;
78057;SDS011;67265;52.514;13.292;2024-03-02T07:20:56;49.50;;;20.83;;
78057;SDS011;67265;52.514;13.292;2024-03-02T07:23:27;47.08;;;20.52;;
78057;SDS011;67265;52.514;13.292;2024-03-02T07:25:54;50.08;;;19.70;;
78057;SDS011;67265;52.514;13.292;2024-03-02T07:28:26;47.45;;;20.25;;
78057;SDS011;67265;52.514;13.292;2024-03-02T07:31:03;51.03;;;21.17;;
78057;SDS011;67265;52.514;13.292;2024-03-02T07:33:31;45.00;;;19.20;;
78057;SDS011;67265;52.514;13.292;2024-03-02T07:35:58;48.25;;;20.63;;
78057;SDS011;67265;52.514;13.292;2024-03-02T07:38:29;46.83;;;20.02;;
78057;SDS011;67265;52.514;13.292;2024-03-02T07:40:56;50.72;;;21.00;;
78057;SDS011;67265;52.514;13.292;2024-03-02T07:43:23;49.10;;;20.35;;
78057;SDS011;67265;52.514;13.292;2024-03-02T07:45:49;50.95;;;20.23;;
78057;SDS011;67265;52.514;13.292;2024-03-02T07:48:16;48.70;;;20.58;;
78057;SDS011;67265;52.514;13.292;2024-03-02T07:50:43;46.15;;;19.92;;
78057;SDS011;67265;52.514;13.292;2024-03-02T07:53:09;46.58;;;20.13;;
78057;SDS011;67265;52.514;13.292;2024-03-02T07:55:36;48.85;;;20.38;;
78057;SDS011;67265;52.514;13.292;2024-03-02T07:58:02;50.67;;;18.58;;
78057;SDS011;67265;52.514;13.292;2024-03-02T08:00:29;48.13;;;21.02;;
78057;SDS011;67265;52.514;13.292;2024-03-02T08:02:56;44.78;;;21.13;;
78057;SDS011;67265;52.514;13.292;2024-03-02T08:05:22;48.55;;;20.15;;
78057;SDS011;67265;52.514;13.292;2024-03-02T08:07:49;47.78;;;19.67;;
78057;SDS011;67265;52.514;13.292;2024-03-02T08:10:19;46.60;;;18.80;;
78057;SDS011;67265;52.514;13.292;2024-03-02T08:12:45;45.80;;;20.05;;
78057;SDS011;67265;52.514;13.292;2024-03-02T08:15:13;45.45;;;20.38;;
78057;SDS011;67265;52.514;13.292;2024-03-02T08:17:39;44.38;;;18.80;;
78057;SDS011;67265;52.514;13.292;2024-03-02T08:20:14;49.50;;;19.88;;
78057;SDS011;67265;52.514;13.292;2024-03-02T08:22:42;46.72;;;20.17;;
78057;SDS011;67265;52.514;13.292;2024-03-02T08:25:09;46.20;;;19.25;;
78057;SDS011;67265;52.514;13.292;2024-03-02T08:27:37;46.92;;;19.92;;
78057;SDS011;67265;52.514;13.292;2024-03-02T08:30:06;46.60;;;19.23;;
78057;SDS011;67265;52.514;13.292;2024-03-02T08:32:34;44.03;;;18.40;;
78057;SDS011;67265;52.514;13.292;2024-03-02T08:35:01;45.47;;;19.75;;
78057;SDS011;67265;52.514;13.292;2024-03-02T08:37:27;44.10;;;17.83;;
78057;SDS011;67265;52.514;13.292;2024-03-02T08:39:54;45.35;;;19.13;;
78057;SDS011;67265;52.514;13.292;2024-03-02T08:42:21;47.25;;;18.92;;
78057;SDS011;67265;52.514;13.292;2024-03-02T08:44:48;46.92;;;18.58;;
78057;SDS011;67265;52.514;13.292;2024-03-02T08:47:16;42.83;;;18.13;;
78057;SDS011;67265;52.514;13.292;2024-03-02T08:49:42;42.72;;;19.52;;
78057;SDS011;67265;52.514;13.292;2024-03-02T08:52:09;40.10;;;18.30;;
78057;SDS011;67265;52.514;13.292;2024-03-02T08:54:35;52.90;;;19.60;;
78057;SDS011;67265;52.514;13.292;2024-03-02T08:57:02;44.63;;;17.83;;
78057;SDS011;67265;52.514;13.292;2024-03-02T08:59:29;46.05;;;19.23;;
78057;SDS011;67265;52.514;13.292;2024-03-02T09:01:55;42.78;;;18.70;;
78057;SDS011;67265;52.514;13.292;2024-03-02T09:04:22;41.78;;;18.65;;
78057;SDS011;67265;52.514;13.292;2024-03-02T09:06:53;41.25;;;18.13;;
78057;SDS011;67265;52.514;13.292;2024-03-02T09:09:20;48.17;;;20.23;;
78057;SDS011;67265;52.514;13.292;2024-03-02T09:11:47;43.55;;;19.70;;
78057;SDS011;67265;52.514;13.292;2024-03-02T09:14:15;37.97;;;17.92;;
78057;SDS011;67265;52.514;13.292;2024-03-02T09:16:42;43.38;;;18.52;;
78057;SDS011;67265;52.514;13.292;2024-03-02T09:19:09;42.80;;;19.35;;
78057;SDS011;67265;52.514;13.292;2024-03-02T09:21:36;46.38;;;18.58;;
78057;SDS011;67265;52.514;13.292;2024-03-02T09:24:03;40.35;;;18.35;;
78057;SDS011;67265;52.514;13.292;2024-03-02T09:26:30;44.30;;;18.83;;
78057;SDS011;67265;52.514;13.292;2024-03-02T09:28:57;43.28;;;19.42;;
78057;SDS011;67265;52.514;13.292;2024-03-02T09:31:25;44.55;;;18.98;;
78057;SDS011;67265;52.514;13.292;2024-03-02T09:33:52;48.38;;;19.30;;
78057;SDS011;67265;52.514;13.292;2024-03-02T09:36:19;42.75;;;19.20;;
78057;SDS011;67265;52.514;13.292;2024-03-02T09:38:46;41.25;;;17.52;;
78057;SDS011;67265;52.514;13.292;2024-03-02T09:41:14;43.72;;;18.70;;
78057;SDS011;67265;52.514;13.292;2024-03-02T09:43:41;41.30;;;17.33;;
78057;SDS011;67265;52.514;13.292;2024-03-02T09:46:10;39.55;;;17.92;;
78057;SDS011;67265;52.514;13.292;2024-03-02T09:48:37;40.92;;;17.30;;
78057;SDS011;67265;52.514;13.292;2024-03-02T09:51:04;39.15;;;17.23;;
78057;SDS011;67265;52.514;13.292;2024-03-02T09:53:32;38.33;;;16.40;;
78057;SDS011;67265;52.514;13.292;2024-03-02T09:56:02;39.72;;;16.42;;
78057;SDS011;67265;52.514;13.292;2024-03-02T09:58:29;37.10;;;14.80;;
78057;SDS011;67265;52.514;13.292;2024-03-02T10:00:56;37.50;;;16.58;;
78057;SDS011;67265;52.514;13.292;2024-03-02T10:03:23;35.47;;;15.85;;
78057;SDS011;67265;52.514;13.292;2024-03-02T10:05:53;39.40;;;16.92;;
78057;SDS011;67265;52.514;13.292;2024-03-02T10:08:22;34.80;;;15.55;;
78057;SDS011;67265;52.514;13.292;2024-03-02T10:10:48;34.35;;;15.30;;
78057;SDS011;67265;52.514;13.292;2024-03-02T10:13:15;35.65;;;15.18;;
78057;SDS011;67265;52.514;13.292;2024-03-02T10:15:43;32.42;;;14.75;;
78057;SDS011;67265;52.514;13.292;2024-03-02T10:18:10;32.92;;;14.98;;
78057;SDS011;67265;52.514;13.292;2024-03-02T10:20:41;33.13;;;15.38;;
78057;SDS011;67265;52.514;13.292;2024-03-02T10:23:14;32.97;;;14.07;;
78057;SDS011;67265;52.514;13.292;2024-03-02T10:25:43;32.13;;;13.98;;
78057;SDS011;67265;52.514;13.292;2024-03-02T10:28:23;29.40;;;14.13;;
78057;SDS011;67265;52.514;13.292;2024-03-02T10:30:49;32.20;;;13.82;;
78057;SDS011;67265;52.514;13.292;2024-03-02T10:33:18;29.60;;;13.88;;
78057;SDS011;67265;52.514;13.292;2024-03-02T10:35:45;32.95;;;15.55;;
78057;SDS011;67265;52.514;13.292;2024-03-02T10:38:14;29.95;;;13.68;;
78057;SDS011;67265;52.514;13.292;2024-03-02T10:40:41;31.05;;;14.07;;
78057;SDS011;67265;52.514;13.292;2024-03-02T10:43:13;30.23;;;13.52;;
78057;SDS011;67265;52.514;13.292;2024-03-02T10:45:40;27.40;;;13.18;;
78057;SDS011;67265;52.514;13.292;2024-03-02T10:48:07;29.25;;;13.52;;
78057;SDS011;67265;52.514;13.292;2024-03-02T10:50:34;28.17;;;12.52;;
78057;SDS011;67265;52.514;13.292;2024-03-02T10:53:00;27.73;;;12.57;;
78057;SDS011;67265;52.514;13.292;2024-03-02T10:55:27;25.05;;;11.70;;
78057;SDS011;67265;52.514;13.292;2024-03-02T10:57:54;26.75;;;12.18;;
78057;SDS011;67265;52.514;13.292;2024-03-02T11:00:26;23.45;;;11.50;;
78057;SDS011;67265;52.514;13.292;2024-03-02T11:03:06;27.05;;;12.43;;
78057;SDS011;67265;52.514;13.292;2024-03-02T11:05:38;25.92;;;12.13;;
78057;SDS011;67265;52.514;13.292;2024-03-02T11:08:11;23.95;;;10.90;;
78057;SDS011;67265;52.514;13.292;2024-03-02T11:13:14;22.92;;;11.57;;
78057;SDS011;67265;52.514;13.292;2024-03-02T11:15:42;26.33;;;11.02;;
78057;SDS011;67265;52.514;13.292;2024-03-02T11:18:10;25.92;;;10.70;;
78057;SDS011;67265;52.514;13.292;2024-03-02T11:20:38;21.20;;;10.65;;
78057;SDS011;67265;52.514;13.292;2024-03-02T11:23:09;22.30;;;10.70;;
78057;SDS011;67265;52.514;13.292;2024-03-02T11:28:03;20.73;;;9.57;;
78057;SDS011;67265;52.514;13.292;2024-03-02T11:32:58;22.95;;;10.50;;
78057;SDS011;67265;52.514;13.292;2024-03-02T11:35:25;19.25;;;9.60;;
78057;SDS011;67265;52.514;13.292;2024-03-02T11:37:52;19.42;;;10.50;;
78057;SDS011;67265;52.514;13.292;2024-03-02T11:40:22;21.23;;;10.23;;
78057;SDS011;67265;52.514;13.292;2024-03-02T11:42:49;23.55;;;9.77;;
78057;SDS011;67265;52.514;13.292;2024-03-02T11:45:25;20.30;;;10.32;;
78057;SDS011;67265;52.514;13.292;2024-03-02T11:47:55;18.98;;;9.63;;
78057;SDS011;67265;52.514;13.292;2024-03-02T11:50:36;20.08;;;9.63;;
78057;SDS011;67265;52.514;13.292;2024-03-02T11:53:07;21.60;;;9.77;;
78057;SDS011;67265;52.514;13.292;2024-03-02T11:55:38;21.63;;;10.00;;
78057;SDS011;67265;52.514;13.292;2024-03-02T11:58:10;18.35;;;9.20;;
78057;SDS011;67265;52.514;13.292;2024-03-02T12:00:36;22.73;;;10.77;;
78057;SDS011;67265;52.514;13.292;2024-03-02T12:03:12;21.67;;;10.40;;
78057;SDS011;67265;52.514;13.292;2024-03-02T12:05:39;19.23;;;10.27;;
78057;SDS011;67265;52.514;13.292;2024-03-02T12:08:06;23.35;;;10.07;;
78057;SDS011;67265;52.514;13.292;2024-03-02T12:10:34;23.27;;;11.32;;
78057;SDS011;67265;52.514;13.292;2024-03-02T12:13:02;21.27;;;10.05;;
78057;SDS011;67265;52.514;13.292;2024-03-02T12:15:31;22.85;;;10.57;;
78057;SDS011;67265;52.514;13.292;2024-03-02T12:18:03;23.63;;;10.98;;
78057;SDS011;67265;52.514;13.292;2024-03-02T12:20:31;21.55;;;11.25;;
78057;SDS011;67265;52.514;13.292;2024-03-02T12:22:59;20.10;;;9.93;;
78057;SDS011;67265;52.514;13.292;2024-03-02T12:25:26;20.40;;;10.30;;
78057;SDS011;67265;52.514;13.292;2024-03-02T12:27:54;23.55;;;9.85;;
78057;SDS011;67265;52.514;13.292;2024-03-02T12:30:22;22.67;;;11.13;;
78057;SDS011;67265;52.514;13.292;2024-03-02T12:32:51;25.15;;;12.05;;
78057;SDS011;67265;52.514;13.292;2024-03-02T12:35:18;25.05;;;10.85;;
78057;SDS011;67265;52.514;13.292;2024-03-02T12:37:48;25.70;;;11.65;;
78057;SDS011;67265;52.514;13.292;2024-03-02T12:40:16;24.15;;;11.65;;
78057;SDS011;67265;52.514;13.292;2024-03-02T12:42:46;20.98;;;10.32;;
78057;SDS011;67265;52.514;13.292;2024-03-02T12:45:13;19.48;;;9.52;;
78057;SDS011;67265;52.514;13.292;2024-03-02T12:47:40;21.98;;;11.02;;
78057;SDS011;67265;52.514;13.292;2024-03-02T12:50:08;25.27;;;11.50;;
78057;SDS011;67265;52.514;13.292;2024-03-02T12:52:36;24.42;;;11.73;;
78057;SDS011;67265;52.514;13.292;2024-03-02T12:55:05;22.65;;;10.55;;
78057;SDS011;67265;52.514;13.292;2024-03-02T13:02:30;18.67;;;9.50;;
78057;SDS011;67265;52.514;13.292;2024-03-02T13:05:00;16.60;;;8.77;;
78057;SDS011;67265;52.514;13.292;2024-03-02T13:07:26;18.20;;;9.15;;
78057;SDS011;67265;52.514;13.292;2024-03-02T13:09:53;17.23;;;7.88;;
78057;SDS011;67265;52.514;13.292;2024-03-02T13:12:24;15.48;;;7.80;;
78057;SDS011;67265;52.514;13.292;2024-03-02T13:14:54;13.00;;;7.63;;
78057;SDS011;67265;52.514;13.292;2024-03-02T13:17:21;19.73;;;8.18;;
78057;SDS011;67265;52.514;13.292;2024-03-02T13:19:56;16.25;;;8.48;;
78057;SDS011;67265;52.514;13.292;2024-03-02T13:22:23;15.95;;;8.68;;
78057;SDS011;67265;52.514;13.292;2024-03-02T13:24:50;16.77;;;8.13;;
78057;SDS011;67265;52.514;13.292;2024-03-02T13:27:17;17.08;;;8.23;;
78057;SDS011;67265;52.514;13.292;2024-03-02T13:29:47;22.75;;;9.95;;
78057;SDS011;67265;52.514;13.292;2024-03-02T13:32:14;18.70;;;9.77;;
78057;SDS011;67265;52.514;13.292;2024-03-02T13:34:41;18.48;;;9.27;;
78057;SDS011;67265;52.514;13.292;2024-03-02T13:37:08;19.58;;;9.55;;
78057;SDS011;67265;52.514;13.292;2024-03-02T13:39:35;17.63;;;9.82;;
78057;SDS011;67265;52.514;13.292;2024-03-02T13:42:09;20.55;;;9.77;;
78057;SDS011;67265;52.514;13.292;2024-03-02T13:44:36;18.58;;;8.68;;
78057;SDS011;67265;52.514;13.292;2024-03-02T13:47:03;18.23;;;9.10;;
78057;SDS011;67265;52.514;13.292;2024-03-02T13:49:31;17.45;;;8.43;;
78057;SDS011;67265;52.514;13.292;2024-03-02T13:52:04;17.60;;;8.00;;
78057;SDS011;67265;52.514;13.292;2024-03-02T13:54:37;17.83;;;8.98;;
78057;SDS011;67265;52.514;13.292;2024-03-02T13:57:04;15.85;;;9.13;;
78057;SDS011;67265;52.514;13.292;2024-03-02T13:59:31;16.25;;;7.32;;
78057;SDS011;67265;52.514;13.292;2024-03-02T14:01:58;16.48;;;7.85;;
78057;SDS011;67265;52.514;13.292;2024-03-02T14:04:25;17.17;;;8.48;;
78057;SDS011;67265;52.514;13.292;2024-03-02T14:06:51;17.15;;;7.93;;
78057;SDS011;67265;52.514;13.292;2024-03-02T14:09:19;15.82;;;8.02;;
78057;SDS011;67265;52.514;13.292;2024-03-02T14:11:49;16.75;;;8.13;;
78057;SDS011;67265;52.514;13.292;2024-03-02T14:14:17;13.52;;;7.22;;
78057;SDS011;67265;52.514;13.292;2024-03-02T14:16:44;16.77;;;8.00;;
78057;SDS011;67265;52.514;13.292;2024-03-02T14:19:13;14.15;;;6.90;;
78057;SDS011;67265;52.514;13.292;2024-03-02T14:21:40;12.00;;;6.30;;
78057;SDS011;67265;52.514;13.292;2024-03-02T14:24:07;15.77;;;8.30;;
78057;SDS011;67265;52.514;13.292;2024-03-02T14:26:33;14.63;;;8.43;;
78057;SDS011;67265;52.514;13.292;2024-03-02T14:29:00;13.02;;;6.80;;
78057;SDS011;67265;52.514;13.292;2024-03-02T14:31:28;11.95;;;6.68;;
78057;SDS011;67265;52.514;13.292;2024-03-02T14:33:55;12.60;;;6.03;;
78057;SDS011;67265;52.514;13.292;2024-03-02T14:36:22;13.48;;;6.82;;
78057;SDS011;67265;52.514;13.292;2024-03-02T14:38:48;15.18;;;7.65;;